Tafton, Arkansas
Current Conditions -  °F | °C
As of 6:53 PM on Friday 19 Dec 2014 (Local Time) from KLIT Reporting Station
Overcast Overcast  
Wind Chill: 38°   Ceiling: 4900
Heat Index: 42°   Visibility: 10mi
Dew Point: 35°   Wind: 7mph
Humidity: 76%   Direction: 30°NNE
Pressure: 30.24"   Gusts: NA
Location:  34.6196°N, 92.2211°W
Report Text: KLIT 200053Z 03006KT 10SM FEW013 OVC049 06/02 A3024 RMK AO2 SLP245 T00560017
Loading
Personal Weather Stations






























Interactive Weather Map New forecast layout! Learn more

10-Day Weather Forecast

Advertisements
Track Severe Weather on mobile